sensor_id;sensor_type;location;lat;lon;timestamp;pressure;altitude;pressure_sealevel;temperature;humidity
61271;BME280;47150;53.032;8.960;2023-02-01T01:30:43;101263.44;;;8.21;100.00
61271;BME280;47150;53.032;8.960;2023-02-01T01:39:35;101258.22;;;8.05;100.00
61271;BME280;47150;53.032;8.960;2023-02-01T01:42:00;101256.50;;;8.33;100.00
61271;BME280;47150;53.032;8.960;2023-02-01T01:47:35;101245.13;;;7.94;100.00
61271;BME280;47150;53.032;8.960;2023-02-01T01:50:11;101252.03;;;7.52;100.00
61271;BME280;47150;53.032;8.960;2023-02-01T01:52:41;101237.28;;;7.87;100.00
61271;BME280;47150;53.032;8.960;2023-02-01T01:55:09;101244.25;;;7.94;100.00
61271;BME280;47150;53.032;8.960;2023-02-01T01:57:42;101238.16;;;8.07;100.00
61271;BME280;47150;53.032;8.960;2023-02-01T02:00:14;101230.28;;;7.82;100.00
61271;BME280;47150;53.032;8.960;2023-02-01T02:02:46;101229.31;;;7.43;100.00
61271;BME280;47150;53.032;8.960;2023-02-01T02:05:14;101227.69;;;7.82;100.00
61271;BME280;47150;53.032;8.960;2023-02-01T02:07:48;101222.44;;;8.02;100.00
61271;BME280;47150;53.032;8.960;2023-02-01T02:10:17;101218.91;;;7.71;100.00
61271;BME280;47150;53.032;8.960;2023-02-01T02:12:44;101219.84;;;8.07;100.00
61271;BME280;47150;53.032;8.960;2023-02-01T02:15:14;101222.44;;;8.02;100.00
61271;BME280;47150;53.032;8.960;2023-02-01T02:18:21;101215.47;;;7.92;100.00
61271;BME280;47150;53.032;8.960;2023-02-01T02:29:04;101215.44;;;7.67;100.00
61271;BME280;47150;53.032;8.960;2023-02-01T02:34:41;101187.53;;;7.80;100.00
61271;BME280;47150;53.032;8.960;2023-02-01T02:42:24;101169.22;;;7.62;100.00
61271;BME280;47150;53.032;8.960;2023-02-01T02:45:20;101173.56;;;8.08;100.00
61271;BME280;47150;53.032;8.960;2023-02-01T02:51:04;101165.75;;;7.78;100.00
61271;BME280;47150;53.032;8.960;2023-02-01T02:54:05;101178.81;;;7.86;100.00
61271;BME280;47150;53.032;8.960;2023-02-01T02:56:56;101157.88;;;7.84;100.00
61271;BME280;47150;53.032;8.960;2023-02-01T02:59:45;101169.19;;;7.40;100.00
61271;BME280;47150;53.032;8.960;2023-02-01T03:02:31;101193.63;;;8.04;100.00
61271;BME280;47150;53.032;8.960;2023-02-01T03:05:17;101172.72;;;7.98;100.00
61271;BME280;47150;53.032;8.960;2023-02-01T03:08:03;101170.94;;;7.88;100.00
61271;BME280;47150;53.032;8.960;2023-02-01T03:10:45;101170.91;;;7.32;100.00
61271;BME280;47150;53.032;8.960;2023-02-01T03:15:59;101148.25;;;7.19;100.00
61271;BME280;47150;53.032;8.960;2023-02-01T03:21:53;101130.81;;;7.39;100.00
61271;BME280;47150;53.032;8.960;2023-02-01T03:24:35;101127.38;;;7.60;100.00
61271;BME280;47150;53.032;8.960;2023-02-01T03:27:12;101134.34;;;7.69;100.00
61271;BME280;47150;53.032;8.960;2023-02-01T03:29:54;101126.50;;;7.91;100.00
61271;BME280;47150;53.032;8.960;2023-02-01T03:32:33;101121.25;;;7.55;100.00
61271;BME280;47150;53.032;8.960;2023-02-01T03:35:27;101121.25;;;7.58;100.00
61271;BME280;47150;53.032;8.960;2023-02-01T03:37:58;101121.25;;;7.54;100.00
61271;BME280;47150;53.032;8.960;2023-02-01T03:40:32;101121.25;;;7.47;100.00
61271;BME280;47150;53.032;8.960;2023-02-01T03:43:04;101128.94;;;6.79;100.00
61271;BME280;47150;53.032;8.960;2023-02-01T03:45:39;101141.88;;;6.52;100.00
61271;BME280;47150;53.032;8.960;2023-02-01T03:48:09;101139.19;;;6.41;100.00
61271;BME280;47150;53.032;8.960;2023-02-01T03:50:44;101141.88;;;6.48;100.00
61271;BME280;47150;53.032;8.960;2023-02-01T03:53:17;101143.63;;;6.54;100.00
61271;BME280;47150;53.032;8.960;2023-02-01T03:55:45;101153.78;;;6.06;100.00
61271;BME280;47150;53.032;8.960;2023-02-01T03:58:16;101154.69;;;6.10;100.00
61271;BME280;47150;53.032;8.960;2023-02-01T04:00:58;101150.41;;;6.20;100.00
61271;BME280;47150;53.032;8.960;2023-02-01T04:03:26;101146.84;;;6.10;100.00
61271;BME280;47150;53.032;8.960;2023-02-01T04:05:53;101147.78;;;6.21;100.00
61271;BME280;47150;53.032;8.960;2023-02-01T04:08:20;101144.53;;;6.59;100.00
61271;BME280;47150;53.032;8.960;2023-02-01T04:10:47;101134.72;;;6.15;100.00
61271;BME280;47150;53.032;8.960;2023-02-01T04:13:13;101132.34;;;6.60;100.00
61271;BME280;47150;53.032;8.960;2023-02-01T04:15:38;101142.38;;;5.95;100.00
61271;BME280;47150;53.032;8.960;2023-02-01T04:18:04;101133.94;;;6.32;100.00
61271;BME280;47150;53.032;8.960;2023-02-01T04:20:30;101143.13;;;5.80;100.00
61271;BME280;47150;53.032;8.960;2023-02-01T04:22:56;101129.69;;;5.35;100.00
61271;BME280;47150;53.032;8.960;2023-02-01T04:25:21;101122.44;;;6.03;100.00
61271;BME280;47150;53.032;8.960;2023-02-01T04:27:47;101121.59;;;6.04;100.00
61271;BME280;47150;53.032;8.960;2023-02-01T04:30:13;101114.41;;;5.75;100.00
61271;BME280;47150;53.032;8.960;2023-02-01T04:32:39;101101.00;;;6.63;100.00
61271;BME280;47150;53.032;8.960;2023-02-01T04:35:06;101093.09;;;6.40;100.00
61271;BME280;47150;53.032;8.960;2023-02-01T04:37:32;101081.00;;;6.62;100.00
61271;BME280;47150;53.032;8.960;2023-02-01T04:39:58;101079.16;;;6.38;100.00
61271;BME280;47150;53.032;8.960;2023-02-01T04:42:23;101092.91;;;6.10;100.00
61271;BME280;47150;53.032;8.960;2023-02-01T04:44:49;101073.03;;;6.31;100.00
61271;BME280;47150;53.032;8.960;2023-02-01T04:47:14;101076.53;;;6.36;100.00
61271;BME280;47150;53.032;8.960;2023-02-01T04:49:40;101068.75;;;6.53;100.00
61271;BME280;47150;53.032;8.960;2023-02-01T04:52:06;101064.47;;;6.66;100.00
61271;BME280;47150;53.032;8.960;2023-02-01T04:54:33;101067.00;;;6.47;100.00
61271;BME280;47150;53.032;8.960;2023-02-01T04:56:58;101069.59;;;6.44;100.00
61271;BME280;47150;53.032;8.960;2023-02-01T04:59:24;101060.16;;;6.74;100.00
61271;BME280;47150;53.032;8.960;2023-02-01T05:01:50;101063.53;;;6.48;100.00
61271;BME280;47150;53.032;8.960;2023-02-01T05:04:16;101058.31;;;6.50;100.00
61271;BME280;47150;53.032;8.960;2023-02-01T05:06:44;101056.72;;;6.97;100.00
61271;BME280;47150;53.032;8.960;2023-02-01T05:09:10;101064.53;;;6.88;100.00
61271;BME280;47150;53.032;8.960;2023-02-01T05:11:35;101064.47;;;6.68;100.00
61271;BME280;47150;53.032;8.960;2023-02-01T05:14:20;101048.03;;;7.10;100.00
61271;BME280;47150;53.032;8.960;2023-02-01T05:16:45;101042.72;;;6.72;100.00
61271;BME280;47150;53.032;8.960;2023-02-01T05:19:11;101046.25;;;7.15;100.00
61271;BME280;47150;53.032;8.960;2023-02-01T05:21:36;101031.44;;;6.90;100.00
61271;BME280;47150;53.032;8.960;2023-02-01T05:24:02;101025.28;;;6.58;100.00
61271;BME280;47150;53.032;8.960;2023-02-01T05:26:46;101032.25;;;6.59;100.00
61271;BME280;47150;53.032;8.960;2023-02-01T05:29:14;101026.25;;;7.18;100.00
61271;BME280;47150;53.032;8.960;2023-02-01T05:31:40;101022.69;;;6.74;100.00
61271;BME280;47150;53.032;8.960;2023-02-01T05:34:06;101047.88;;;6.48;100.00
61271;BME280;47150;53.032;8.960;2023-02-01T05:36:32;101030.59;;;7.12;100.00
61271;BME280;47150;53.032;8.960;2023-02-01T05:38:58;101017.47;;;6.69;100.00
61271;BME280;47150;53.032;8.960;2023-02-01T05:41:24;101027.88;;;6.64;100.00
61271;BME280;47150;53.032;8.960;2023-02-01T05:43:49;101048.88;;;7.00;100.00
61271;BME280;47150;53.032;8.960;2023-02-01T05:46:15;101039.13;;;6.45;100.00
61271;BME280;47150;53.032;8.960;2023-02-01T05:48:41;101019.25;;;6.92;100.00
61271;BME280;47150;53.032;8.960;2023-02-01T05:51:08;101048.00;;;6.99;100.00
61271;BME280;47150;53.032;8.960;2023-02-01T05:53:35;101028.84;;;7.13;100.00
61271;BME280;47150;53.032;8.960;2023-02-01T05:56:00;101040.16;;;7.07;100.00
61271;BME280;47150;53.032;8.960;2023-02-01T05:58:26;101034.94;;;7.13;100.00
61271;BME280;47150;53.032;8.960;2023-02-01T06:00:52;101036.69;;;7.11;100.00
61271;BME280;47150;53.032;8.960;2023-02-01T06:03:17;101057.59;;;7.27;100.00
61271;BME280;47150;53.032;8.960;2023-02-01T06:05:44;101045.25;;;6.52;100.00
61271;BME280;47150;53.032;8.960;2023-02-01T06:08:11;101059.06;;;6.20;100.00
61271;BME280;47150;53.032;8.960;2023-02-01T06:10:37;101088.78;;;6.50;100.00
61271;BME280;47150;53.032;8.960;2023-02-01T06:13:02;101082.78;;;6.71;100.00
61271;BME280;47150;53.032;8.960;2023-02-01T06:15:29;101100.16;;;6.65;100.00
61271;BME280;47150;53.032;8.960;2023-02-01T06:17:55;101093.88;;;6.25;100.00
61271;BME280;47150;53.032;8.960;2023-02-01T06:20:21;101096.63;;;6.59;100.00
61271;BME280;47150;53.032;8.960;2023-02-01T06:22:47;101081.81;;;6.55;100.00
61271;BME280;47150;53.032;8.960;2023-02-01T06:25:12;101068.91;;;7.01;100.00
61271;BME280;47150;53.032;8.960;2023-02-01T06:27:38;101081.97;;;7.01;100.00
61271;BME280;47150;53.032;8.960;2023-02-01T06:30:05;101084.63;;;7.13;100.00
61271;BME280;47150;53.032;8.960;2023-02-01T06:32:31;101081.09;;;6.99;100.00
61271;BME280;47150;53.032;8.960;2023-02-01T06:34:57;101084.63;;;7.47;100.00
61271;BME280;47150;53.032;8.960;2023-02-01T06:37:24;101089.88;;;7.44;100.00
61271;BME280;47150;53.032;8.960;2023-02-01T06:39:51;101086.28;;;6.85;100.00
61271;BME280;47150;53.032;8.960;2023-02-01T06:42:16;101073.31;;;7.48;100.00
61271;BME280;47150;53.032;8.960;2023-02-01T06:44:42;101085.50;;;7.25;100.00
61271;BME280;47150;53.032;8.960;2023-02-01T06:47:08;101089.88;;;7.55;100.00
61271;BME280;47150;53.032;8.960;2023-02-01T06:49:33;101094.19;;;7.07;100.00
61271;BME280;47150;53.032;8.960;2023-02-01T06:51:59;101075.91;;;7.47;100.00
61271;BME280;47150;53.032;8.960;2023-02-01T06:54:27;101076.78;;;7.23;100.00
61271;BME280;47150;53.032;8.960;2023-02-01T06:56:54;101076.81;;;7.38;100.00
61271;BME280;47150;53.032;8.960;2023-02-01T06:59:20;101087.25;;;7.32;100.00
61271;BME280;47150;53.032;8.960;2023-02-01T07:01:45;101089.00;;;7.47;100.00
61271;BME280;47150;53.032;8.960;2023-02-01T07:04:11;101091.59;;;7.84;100.00
61271;BME280;47150;53.032;8.960;2023-02-01T07:06:38;101088.97;;;7.78;100.00
61271;BME280;47150;53.032;8.960;2023-02-01T07:09:04;101090.72;;;7.79;100.00
61271;BME280;47150;53.032;8.960;2023-02-01T07:11:29;101092.47;;;7.29;100.00
61271;BME280;47150;53.032;8.960;2023-02-01T07:13:55;101127.28;;;7.09;100.00
61271;BME280;47150;53.032;8.960;2023-02-01T07:16:21;101109.00;;;7.17;100.00
61271;BME280;47150;53.032;8.960;2023-02-01T07:18:47;101131.56;;;8.69;100.00
61271;BME280;47150;53.032;8.960;2023-02-01T07:21:15;101121.94;;;6.66;100.00
61271;BME280;47150;53.032;8.960;2023-02-01T07:23:40;101119.50;;;5.63;100.00
61271;BME280;47150;53.032;8.960;2023-02-01T07:26:07;101156.03;;;10.86;100.00
61271;BME280;47150;53.032;8.960;2023-02-01T07:28:35;101128.09;;;10.79;100.00
61271;BME280;47150;53.032;8.960;2023-02-01T07:31:13;101124.81;;;9.71;100.00
61271;BME280;47150;53.032;8.960;2023-02-01T07:33:40;101125.47;;;8.64;100.00
61271;BME280;47150;53.032;8.960;2023-02-01T07:36:11;101146.00;;;9.43;100.00
61271;BME280;47150;53.032;8.960;2023-02-01T07:38:39;101130.44;;;9.12;100.00
61271;BME280;47150;53.032;8.960;2023-02-01T07:41:05;101110.38;;;9.08;100.00
61271;BME280;47150;53.032;8.960;2023-02-01T07:43:32;101098.97;;;9.17;100.00
61271;BME280;47150;53.032;8.960;2023-02-01T07:46:01;101110.19;;;9.34;100.00
61271;BME280;47150;53.032;8.960;2023-02-01T07:48:28;101097.28;;;9.11;100.00
61271;BME280;47150;53.032;8.960;2023-02-01T07:51:01;101119.53;;;9.74;100.00
61271;BME280;47150;53.032;8.960;2023-02-01T07:53:34;101112.09;;;9.11;100.00
61271;BME280;47150;53.032;8.960;2023-02-01T07:56:00;101123.44;;;9.17;100.00
61271;BME280;47150;53.032;8.960;2023-02-01T07:58:26;101110.31;;;9.22;100.00
61271;BME280;47150;53.032;8.960;2023-02-01T08:00:53;101126.38;;;8.49;100.00
61271;BME280;47150;53.032;8.960;2023-02-01T08:03:38;101110.94;;;9.53;100.00
61271;BME280;47150;53.032;8.960;2023-02-01T08:06:03;101123.16;;;9.58;100.00
61271;BME280;47150;53.032;8.960;2023-02-01T08:08:30;101121.06;;;8.68;100.00
61271;BME280;47150;53.032;8.960;2023-02-01T08:11:06;101122.16;;;9.73;100.00
61271;BME280;47150;53.032;8.960;2023-02-01T08:13:34;101113.56;;;9.58;100.00
61271;BME280;47150;53.032;8.960;2023-02-01T08:16:01;101127.91;;;9.01;100.00
61271;BME280;47150;53.032;8.960;2023-02-01T08:18:30;101132.91;;;9.42;100.00
61271;BME280;47150;53.032;8.960;2023-02-01T08:20:56;101133.44;;;9.82;100.00
61271;BME280;47150;53.032;8.960;2023-02-01T08:23:22;101148.25;;;9.94;100.00
61271;BME280;47150;53.032;8.960;2023-02-01T08:25:48;101139.75;;;9.63;100.00
61271;BME280;47150;53.032;8.960;2023-02-01T08:28:14;101135.13;;;9.89;100.00
61271;BME280;47150;53.032;8.960;2023-02-01T08:30:40;101128.03;;;10.01;100.00
61271;BME280;47150;53.032;8.960;2023-02-01T08:33:09;101145.00;;;10.54;100.00
61271;BME280;47150;53.032;8.960;2023-02-01T08:35:35;101133.63;;;9.64;100.00
61271;BME280;47150;53.032;8.960;2023-02-01T08:38:02;101128.00;;;10.04;100.00
61271;BME280;47150;53.032;8.960;2023-02-01T08:40:28;101127.56;;;9.56;100.00
61271;BME280;47150;53.032;8.960;2023-02-01T08:42:54;101138.75;;;9.79;100.00
61271;BME280;47150;53.032;8.960;2023-02-01T08:45:28;101117.91;;;10.51;100.00
61271;BME280;47150;53.032;8.960;2023-02-01T08:47:55;101133.66;;;9.58;100.00
61271;BME280;47150;53.032;8.960;2023-02-01T08:50:22;101137.47;;;10.19;100.00
61271;BME280;47150;53.032;8.960;2023-02-01T08:52:49;101123.53;;;10.92;100.00
61271;BME280;47150;53.032;8.960;2023-02-01T08:55:15;101133.16;;;10.16;100.00
61271;BME280;47150;53.032;8.960;2023-02-01T08:57:41;101124.72;;;11.33;100.00
61271;BME280;47150;53.032;8.960;2023-02-01T09:00:10;101126.44;;;11.35;100.00
61271;BME280;47150;53.032;8.960;2023-02-01T09:10:33;101115.34;;;11.12;100.00
61271;BME280;47150;53.032;8.960;2023-02-01T09:13:00;101118.31;;;11.49;100.00
61271;BME280;47150;53.032;8.960;2023-02-01T09:15:26;101119.69;;;10.47;100.00
61271;BME280;47150;53.032;8.960;2023-02-01T09:17:51;101133.75;;;10.43;100.00
61271;BME280;47150;53.032;8.960;2023-02-01T09:20:17;101121.00;;;10.84;100.00
61271;BME280;47150;53.032;8.960;2023-02-01T09:30:59;101113.78;;;12.54;100.00
61271;BME280;47150;53.032;8.960;2023-02-01T09:33:26;101119.56;;;11.78;100.00
61271;BME280;47150;53.032;8.960;2023-02-01T09:36:02;101104.91;;;11.65;100.00
61271;BME280;47150;53.032;8.960;2023-02-01T09:38:30;101098.72;;;11.11;100.00
61271;BME280;47150;53.032;8.960;2023-02-01T09:40:57;101095.25;;;11.09;100.00
61271;BME280;47150;53.032;8.960;2023-02-01T09:43:38;101103.81;;;11.22;100.00
61271;BME280;47150;53.032;8.960;2023-02-01T09:46:27;101087.69;;;11.44;100.00
61271;BME280;47150;53.032;8.960;2023-02-01T09:48:56;101088.72;;;11.86;100.00
61271;BME280;47150;53.032;8.960;2023-02-01T09:51:30;101082.94;;;11.11;100.00
61271;BME280;47150;53.032;8.960;2023-02-01T09:57:07;101110.16;;;10.37;100.00
61271;BME280;47150;53.032;8.960;2023-02-01T09:59:41;101085.41;;;11.75;100.00
61271;BME280;47150;53.032;8.960;2023-02-01T10:02:16;101125.59;;;10.68;100.00
61271;BME280;47150;53.032;8.960;2023-02-01T10:12:48;101092.84;;;10.17;100.00
61271;BME280;47150;53.032;8.960;2023-02-01T10:18:17;101079.66;;;10.94;100.00
61271;BME280;47150;53.032;8.960;2023-02-01T10:20:57;101062.50;;;10.68;100.00
61271;BME280;47150;53.032;8.960;2023-02-01T10:24:02;101067.47;;;11.46;100.00
61271;BME280;47150;53.032;8.960;2023-02-01T10:26:37;101053.00;;;11.18;100.00
61271;BME280;47150;53.032;8.960;2023-02-01T10:29:15;101055.75;;;11.12;100.00
61271;BME280;47150;53.032;8.960;2023-02-01T10:31:47;101060.66;;;11.35;100.00
61271;BME280;47150;53.032;8.960;2023-02-01T10:47:39;101041.31;;;12.33;100.00
61271;BME280;47150;53.032;8.960;2023-02-01T11:01:00;101008.84;;;14.71;100.00
61271;BME280;47150;53.032;8.960;2023-02-01T11:06:29;100989.19;;;14.50;100.00
61271;BME280;47150;53.032;8.960;2023-02-01T11:16:53;100981.38;;;14.17;100.00
61271;BME280;47150;53.032;8.960;2023-02-01T11:19:39;100973.22;;;14.25;100.00
61271;BME280;47150;53.032;8.960;2023-02-01T11:22:12;100975.47;;;14.07;100.00
61271;BME280;47150;53.032;8.960;2023-02-01T11:24:39;100948.84;;;14.15;100.00
61271;BME280;47150;53.032;8.960;2023-02-01T11:27:16;100946.28;;;13.15;100.00
61271;BME280;47150;53.032;8.960;2023-02-01T11:29:47;100949.09;;;12.71;100.00
61271;BME280;47150;53.032;8.960;2023-02-01T11:32:18;100925.94;;;13.84;100.00
61271;BME280;47150;53.032;8.960;2023-02-01T11:34:55;100911.91;;;13.51;100.00
61271;BME280;47150;53.032;8.960;2023-02-01T11:37:33;100903.63;;;12.61;100.00
61271;BME280;47150;53.032;8.960;2023-02-01T11:40:48;100923.13;;;12.90;100.00
61271;BME280;47150;53.032;8.960;2023-02-01T11:45:57;100896.25;;;11.99;100.00
61271;BME280;47150;53.032;8.960;2023-02-01T11:48:27;100894.50;;;11.54;100.00
61271;BME280;47150;53.032;8.960;2023-02-01T11:51:25;100865.91;;;10.88;100.00
61271;BME280;47150;53.032;8.960;2023-02-01T12:18:08;100792.19;;;11.79;100.00
61271;BME280;47150;53.032;8.960;2023-02-01T12:27:14;100893.16;;;21.58;100.00
61271;BME280;47150;53.032;8.960;2023-02-01T12:38:49;100902.44;;;17.01;100.00
61271;BME280;47150;53.032;8.960;2023-02-01T12:44:45;100938.22;;;18.15;83.27
61271;BME280;47150;53.032;8.960;2023-02-01T12:47:27;100945.03;;;17.21;90.71
61271;BME280;47150;53.032;8.960;2023-02-01T12:52:49;100935.19;;;18.03;91.31
61271;BME280;47150;53.032;8.960;2023-02-01T12:55:42;100950.13;;;19.00;70.88
61271;BME280;47150;53.032;8.960;2023-02-01T13:01:17;100939.00;;;20.11;76.99
61271;BME280;47150;53.032;8.960;2023-02-01T13:04:05;100925.84;;;19.74;71.53
61271;BME280;47150;53.032;8.960;2023-02-01T13:07:16;100923.72;;;21.83;67.86
61271;BME280;47150;53.032;8.960;2023-02-01T13:09:54;100923.09;;;18.34;64.06
61271;BME280;47150;53.032;8.960;2023-02-01T13:12:35;100926.09;;;19.70;76.14
61271;BME280;47150;53.032;8.960;2023-02-01T13:15:12;100933.31;;;18.44;82.97
61271;BME280;47150;53.032;8.960;2023-02-01T13:17:44;100931.72;;;20.79;71.04
61271;BME280;47150;53.032;8.960;2023-02-01T13:20:35;100944.53;;;18.50;71.27
61271;BME280;47150;53.032;8.960;2023-02-01T13:25:48;100934.84;;;19.21;87.33
61271;BME280;47150;53.032;8.960;2023-02-01T13:28:53;100932.91;;;19.07;90.94
61271;BME280;47150;53.032;8.960;2023-02-01T13:31:28;100932.56;;;19.99;76.82
61271;BME280;47150;53.032;8.960;2023-02-01T13:43:24;100938.88;;;22.67;77.06
61271;BME280;47150;53.032;8.960;2023-02-01T13:45:55;100934.53;;;23.84;52.77
61271;BME280;47150;53.032;8.960;2023-02-01T13:48:31;100944.53;;;23.56;51.50
61271;BME280;47150;53.032;8.960;2023-02-01T13:51:12;100941.47;;;24.25;53.74
61271;BME280;47150;53.032;8.960;2023-02-01T13:53:45;100944.28;;;18.55;69.11
61271;BME280;47150;53.032;8.960;2023-02-01T13:56:19;100937.78;;;21.27;62.88
61271;BME280;47150;53.032;8.960;2023-02-01T13:58:48;100958.88;;;27.72;46.23
61271;BME280;47150;53.032;8.960;2023-02-01T14:04:06;100965.22;;;21.15;51.93
61271;BME280;47150;53.032;8.960;2023-02-01T14:07:20;100949.69;;;21.66;57.38
61271;BME280;47150;53.032;8.960;2023-02-01T14:09:47;100952.53;;;20.24;62.38
61271;BME280;47150;53.032;8.960;2023-02-01T14:15:35;100941.97;;;20.38;53.87
61271;BME280;47150;53.032;8.960;2023-02-01T14:18:01;100951.38;;;23.34;57.97
61271;BME280;47150;53.032;8.960;2023-02-01T14:20:41;100939.31;;;22.47;49.38
61271;BME280;47150;53.032;8.960;2023-02-01T14:23:16;100948.72;;;24.48;56.56
61271;BME280;47150;53.032;8.960;2023-02-01T14:25:44;100947.53;;;21.42;57.74
61271;BME280;47150;53.032;8.960;2023-02-01T14:28:33;100938.28;;;22.20;51.99
61271;BME280;47150;53.032;8.960;2023-02-01T14:31:15;100931.81;;;21.52;52.06
61271;BME280;47150;53.032;8.960;2023-02-01T14:33:56;100929.22;;;23.05;49.16
61271;BME280;47150;53.032;8.960;2023-02-01T14:36:25;100933.84;;;20.24;69.41
61271;BME280;47150;53.032;8.960;2023-02-01T14:38:52;100935.84;;;22.59;57.63
61271;BME280;47150;53.032;8.960;2023-02-01T14:41:26;100927.94;;;20.97;59.18
61271;BME280;47150;53.032;8.960;2023-02-01T14:47:04;100950.41;;;19.64;58.25
61271;BME280;47150;53.032;8.960;2023-02-01T14:52:42;100943.00;;;19.00;72.39
61271;BME280;47150;53.032;8.960;2023-02-01T14:55:19;100930.22;;;18.53;83.55
61271;BME280;47150;53.032;8.960;2023-02-01T14:57:52;100940.41;;;19.34;65.67
61271;BME280;47150;53.032;8.960;2023-02-01T15:00:23;100942.78;;;18.68;74.29
61271;BME280;47150;53.032;8.960;2023-02-01T15:02:52;100949.50;;;18.76;74.47
61271;BME280;47150;53.032;8.960;2023-02-01T15:05:29;100936.44;;;17.55;73.08
61271;BME280;47150;53.032;8.960;2023-02-01T15:08:15;100934.44;;;17.81;73.58
61271;BME280;47150;53.032;8.960;2023-02-01T15:10:46;100936.50;;;18.14;73.09
61271;BME280;47150;53.032;8.960;2023-02-01T15:13:25;100949.34;;;19.15;69.49
61271;BME280;47150;53.032;8.960;2023-02-01T15:16:11;100949.25;;;20.03;68.33
61271;BME280;47150;53.032;8.960;2023-02-01T15:18:39;100937.84;;;18.97;75.19
61271;BME280;47150;53.032;8.960;2023-02-01T15:21:06;100939.63;;;19.14;64.55
61271;BME280;47150;53.032;8.960;2023-02-01T15:23:40;100947.94;;;19.61;64.60
61271;BME280;47150;53.032;8.960;2023-02-01T15:26:06;100937.47;;;18.30;75.06
61271;BME280;47150;53.032;8.960;2023-02-01T15:28:32;100948.94;;;18.32;68.35
61271;BME280;47150;53.032;8.960;2023-02-01T15:31:00;100943.00;;;18.81;68.36
61271;BME280;47150;53.032;8.960;2023-02-01T15:33:28;100954.50;;;18.45;73.88
61271;BME280;47150;53.032;8.960;2023-02-01T15:36:18;100960.88;;;19.33;64.78
61271;BME280;47150;53.032;8.960;2023-02-01T15:38:45;100956.75;;;18.16;70.51
61271;BME280;47150;53.032;8.960;2023-02-01T15:43:47;100948.84;;;20.11;63.79
61271;BME280;47150;53.032;8.960;2023-02-01T15:46:40;100967.03;;;19.69;63.15
61271;BME280;47150;53.032;8.960;2023-02-01T15:49:37;100962.72;;;18.41;66.47
61271;BME280;47150;53.032;8.960;2023-02-01T15:52:26;100970.28;;;19.05;69.77
61271;BME280;47150;53.032;8.960;2023-02-01T15:55:01;100969.00;;;16.52;74.46
61271;BME280;47150;53.032;8.960;2023-02-01T15:57:38;100988.84;;;17.10;74.53
61271;BME280;47150;53.032;8.960;2023-02-01T16:03:03;100996.72;;;17.96;61.80
61271;BME280;47150;53.032;8.960;2023-02-01T16:05:34;100981.22;;;18.06;62.16
61271;BME280;47150;53.032;8.960;2023-02-01T16:08:22;100993.84;;;18.00;58.11
61271;BME280;47150;53.032;8.960;2023-02-01T16:10:52;100992.84;;;18.03;62.30
61271;BME280;47150;53.032;8.960;2023-02-01T16:13:24;101028.31;;;17.61;77.16
61271;BME280;47150;53.032;8.960;2023-02-01T16:15:49;101015.63;;;16.58;93.14
61271;BME280;47150;53.032;8.960;2023-02-01T16:18:15;101038.22;;;16.46;100.00
61271;BME280;47150;53.032;8.960;2023-02-01T16:20:42;101056.88;;;15.42;100.00
61271;BME280;47150;53.032;8.960;2023-02-01T16:23:09;101047.53;;;14.75;100.00
61271;BME280;47150;53.032;8.960;2023-02-01T16:25:36;101052.03;;;15.82;100.00
61271;BME280;47150;53.032;8.960;2023-02-01T16:28:03;101053.75;;;16.56;88.59
61271;BME280;47150;53.032;8.960;2023-02-01T16:30:30;101065.56;;;16.94;74.25
61271;BME280;47150;53.032;8.960;2023-02-01T16:38:19;101051.94;;;18.10;61.22
61271;BME280;47150;53.032;8.960;2023-02-01T16:40:48;101061.28;;;18.58;68.67
61271;BME280;47150;53.032;8.960;2023-02-01T16:43:19;101071.13;;;16.64;68.36
61271;BME280;47150;53.032;8.960;2023-02-01T16:45:52;101077.94;;;16.48;73.21
61271;BME280;47150;53.032;8.960;2023-02-01T16:50:51;101113.22;;;16.97;77.99
61271;BME280;47150;53.032;8.960;2023-02-01T16:53:20;101138.81;;;16.02;71.47
61271;BME280;47150;53.032;8.960;2023-02-01T16:55:47;101114.03;;;16.28;77.11
61271;BME280;47150;53.032;8.960;2023-02-01T16:58:19;101064.53;;;15.25;89.81
61271;BME280;47150;53.032;8.960;2023-02-01T17:00:46;101074.69;;;16.87;78.71
61271;BME280;47150;53.032;8.960;2023-02-01T17:03:16;101086.69;;;16.97;64.63
61271;BME280;47150;53.032;8.960;2023-02-01T17:06:00;101082.16;;;15.53;78.59
61271;BME280;47150;53.032;8.960;2023-02-01T17:08:36;101081.84;;;15.89;87.57
61271;BME280;47150;53.032;8.960;2023-02-01T17:11:05;101066.38;;;17.41;76.41
61271;BME280;47150;53.032;8.960;2023-02-01T17:13:32;101079.50;;;16.54;84.48
61271;BME280;47150;53.032;8.960;2023-02-01T17:16:00;101068.94;;;16.52;89.19
61271;BME280;47150;53.032;8.960;2023-02-01T17:18:30;101076.91;;;16.76;82.09
61271;BME280;47150;53.032;8.960;2023-02-01T17:20:59;101076.38;;;17.77;71.50
61271;BME280;47150;53.032;8.960;2023-02-01T17:23:29;101086.38;;;18.13;68.52
61271;BME280;47150;53.032;8.960;2023-02-01T17:25:56;101090.41;;;18.61;70.62
61271;BME280;47150;53.032;8.960;2023-02-01T17:28:23;101088.63;;;17.81;79.08
61271;BME280;47150;53.032;8.960;2023-02-01T17:30:49;101111.78;;;18.98;70.99
61271;BME280;47150;53.032;8.960;2023-02-01T17:33:26;101125.16;;;16.38;73.40
61271;BME280;47150;53.032;8.960;2023-02-01T17:35:55;101114.91;;;17.87;72.23
61271;BME280;47150;53.032;8.960;2023-02-01T17:38:22;101118.72;;;16.69;70.99
61271;BME280;47150;53.032;8.960;2023-02-01T17:43:41;101127.97;;;14.98;95.50
61271;BME280;47150;53.032;8.960;2023-02-01T17:46:15;101116.94;;;13.88;100.00
61271;BME280;47150;53.032;8.960;2023-02-01T17:48:54;101103.47;;;14.93;98.66
61271;BME280;47150;53.032;8.960;2023-02-01T17:51:38;101132.56;;;15.76;89.52
61271;BME280;47150;53.032;8.960;2023-02-01T17:54:11;101096.16;;;16.57;92.46